Otter Creek, ME

8:14 PM EST on December 09, 2016 (GMT -0500)
Otter Cliffs, Acadia National Park | | Change Station

Elev 46 ft 44.33 °N, 68.20 °W | Updated 4 seconds ago

Partly Cloudy
Partly Cloudy
24.0 °F
Feels Like 24 °F
N
2.0
Wind Variable Wind from WNW
Gusts 5.0 mph

Today
High -- | Low -- °F
--% Chance of Precip.
Yesterday
High -- | Low -- °F
Precip. -- in
Pressure 29.99 in
Visibility 10.0 miles
Clouds Overcast 3700 ft
Windchill 24 °F
Dew Point 16 °F
Humidity 66%
Rainfall 0.00 in
Snow Depth Not available.
6:57 AM 3:53 PM
Waxing Gibbous, 79% visible
METAR KBHB 100056Z AUTO 32009G14KT 10SM OVC037 M04/M11 A2997 RMK AO2 SLP153 T10441106 FZRANO
Pressure 29.99 in
Visibility 10.0 miles
Clouds Overcast 3700 ft
Windchill 24 °F
Dew Point 16 °F
Humidity 66%
Rainfall 0.00 in
Snow Depth Not available.
6:57 AM 3:53 PM
Waxing Gibbous, 79% visible
METAR KBHB 100056Z AUTO 32009G14KT 10SM OVC037 M04/M11 A2997 RMK AO2 SLP153 T10441106 FZRANO

10-Day Weather Forecast

Almanac

Astronomy

Dec. 09, 2016 Rise Set
Actual Time
Civil Twilight
Nautical Twilight
Astronomical Twilight
Moon
Length of Visible Light
Length of Day
Tomorrow will be .
, % of the Moon is Illuminated

Today's Extremes

State Highs State Lows

Community

WunderPhotos

Upload Photos

1,956,534 photos uploaded!

WunderBlog® & News

Nearby

Air Quality

  Air Quality AQ Index Pollutant
Not available.

Snow Depth

Station Depth Elevation

Earthquake Activity

City Distance Mag. Time & Date
Minimum magnitude displayed is 2.5.

Coastal Water Temperatures

Place Temperature

Stations

Nearby Weather Stations

Station Location Temp. Windchill Dew Point Humidity Wind Precip. Elev Updated Type
                   

Watches & Warnings

There are currently no watches in effect.